Time;durP1;ratioP1;P1;durP2;ratioP2;P2;SDS_P1;SDS_P2;PMS_P1;PMS_P2;Temp;Humidity;BMP_temperature;BMP_pressure;BME280_temperature;BME280_humidity;BME280_pressure;Samples;Min_cycle;Max_cycle;Signal;HPM_P1;HPM_P2
2023/10/02 00:02:08;;;;;;;9.98;5.97;;;;;;;20.79;52.89;101973.97;16118819;19;129577;-62
2023/10/02 00:07:33;;;;;;;11.43;6.70;;;;;;;20.78;52.83;101972.25;16118918;19;131121;-62
2023/10/02 00:12:59;;;;;;;8.85;5.78;;;;;;;20.78;52.88;101974.19;16122565;19;130033;-62
2023/10/02 00:18:22;;;;;;;9.13;5.72;;;;;;;20.78;52.90;101977.81;16115326;19;130105;-62
2023/10/02 00:23:59;;;;;;;9.75;6.05;;;;;;;20.76;52.64;101974.44;16117774;19;130336;-62
2023/10/02 00:29:23;;;;;;;9.60;5.72;;;;;;;20.76;52.93;101963.31;16120304;19;130351;-61
2023/10/02 00:34:51;;;;;;;11.40;5.85;;;;;;;20.76;52.97;101968.88;16119357;19;129788;-62
2023/10/02 00:40:20;;;;;;;9.00;5.93;;;;;;;20.75;52.99;101967.13;16114719;19;130612;-63
2023/10/02 00:45:43;;;;;;;8.15;5.22;;;;;;;20.73;53.01;101964.59;16114354;19;133547;-63
2023/10/02 00:51:11;;;;;;;8.40;5.68;;;;;;;20.73;52.80;101955.38;16114683;19;131391;-62
2023/10/02 00:56:34;;;;;;;7.75;5.32;;;;;;;20.72;52.81;101950.91;16114321;19;130096;-62
2023/10/02 01:01:56;;;;;;;9.45;5.07;;;;;;;20.72;52.99;101951.78;16116591;19;130618;-62
2023/10/02 01:07:22;;;;;;;9.00;5.43;;;;;;;20.71;53.18;101955.63;16114094;19;130085;-62
2023/10/02 01:13:01;;;;;;;9.60;5.72;;;;;;;20.71;52.80;101949.22;16116012;19;129486;-62
2023/10/02 01:18:27;;;;;;;8.45;5.28;;;;;;;20.70;53.08;101945.59;16113492;19;130450;-63
2023/10/02 01:24:10;;;;;;;6.57;4.72;;;;;;;20.69;53.28;101941.13;16110355;19;130634;-62
2023/10/02 01:29:35;;;;;;;9.52;5.18;;;;;;;20.68;52.98;101931.06;16112823;19;129810;-62
2023/10/02 01:34:57;;;;;;;9.73;5.28;;;;;;;20.69;53.13;101945.81;16115238;19;131249;-62
2023/10/02 01:40:33;;;;;;;8.50;4.90;;;;;;;20.68;53.38;101949.69;16113152;19;130483;-61
2023/10/02 01:46:00;;;;;;;8.88;5.90;;;;;;;20.67;52.92;101936.88;16111867;19;130165;-62
2023/10/02 01:51:25;;;;;;;8.65;5.75;;;;;;;20.66;53.14;101935.19;16110001;19;130975;-62
2023/10/02 01:56:49;;;;;;;8.10;5.20;;;;;;;20.67;53.33;101936.88;16110872;19;131535;-62
2023/10/02 02:02:14;;;;;;;8.25;5.03;;;;;;;20.65;53.38;101931.53;16109436;19;130343;-61
2023/10/02 02:07:36;;;;;;;7.05;5.03;;;;;;;20.64;53.30;101935.41;16109412;19;130817;-61
2023/10/02 02:12:58;;;;;;;7.78;4.75;;;;;;;20.63;53.32;101922.59;16116435;19;131424;-61
2023/10/02 02:18:21;;;;;;;8.65;5.20;;;;;;;20.63;53.10;101930.09;16111280;19;129660;-61
2023/10/02 02:23:45;;;;;;;8.98;4.80;;;;;;;20.64;52.99;101920.66;16126791;19;130330;-61
2023/10/02 02:29:23;;;;;;;7.80;4.68;;;;;;;20.64;53.02;101923.44;16123522;19;129923;-60
2023/10/02 02:35:00;;;;;;;7.97;4.53;;;;;;;20.62;53.29;101923.66;16128555;19;130756;-60
2023/10/02 02:40:25;;;;;;;7.53;4.75;;;;;;;20.62;52.95;101918.09;16127091;19;131484;-60
2023/10/02 02:45:47;;;;;;;7.03;4.27;;;;;;;20.61;53.32;101919.22;16125522;19;130501;-60
2023/10/02 02:51:18;;;;;;;6.55;4.55;;;;;;;20.62;53.16;101923.66;16126345;19;129942;-60
2023/10/02 02:56:40;;;;;;;7.05;4.78;;;;;;;20.60;53.41;101906.41;16125283;19;131091;-60
2023/10/02 03:02:20;;;;;;;6.18;4.18;;;;;;;20.60;53.23;101909.19;16118055;19;130266;-60
2023/10/02 03:07:44;;;;;;;6.55;4.50;;;;;;;20.59;53.26;101913.88;16121488;19;129714;-60
2023/10/02 03:13:15;;;;;;;6.72;4.38;;;;;;;20.58;53.14;101909.41;16123163;19;129647;-60
2023/10/02 03:18:37;;;;;;;7.50;4.43;;;;;;;20.58;53.00;101903.84;16123099;19;130303;-59
2023/10/02 03:24:01;;;;;;;6.55;4.10;;;;;;;20.58;53.01;101905.78;16123735;19;130790;-60
2023/10/02 03:29:24;;;;;;;7.97;4.50;;;;;;;20.56;53.20;101894.88;16117131;19;130816;-59
2023/10/02 03:35:02;;;;;;;7.97;4.60;;;;;;;20.56;53.38;101894.88;16121760;19;134060;-58
2023/10/02 03:40:27;;;;;;;7.40;4.50;;;;;;;20.55;53.14;101890.44;16117539;19;130409;-59
2023/10/02 03:45:51;;;;;;;6.57;4.00;;;;;;;20.55;53.30;101892.34;16119180;19;130140;-59
2023/10/02 03:51:51;;;;;;;6.13;4.20;;;;;;;20.56;52.94;101905.16;16117894;19;131312;-58
2023/10/02 03:57:08;;;;;;;8.10;4.75;;;;;;;20.54;53.21;101908.19;16123454;19;130864;-58
2023/10/02 04:02:36;;;;;;;6.47;4.15;;;;;;;20.54;52.96;101897.06;16116063;19;131779;-58
2023/10/02 04:08:13;;;;;;;6.72;4.15;;;;;;;20.53;53.36;101902.84;16119332;19;131694;-58
2023/10/02 04:13:39;;;;;;;6.55;4.20;;;;;;;20.52;53.31;101896.44;16119929;19;130909;-58
2023/10/02 04:19:02;;;;;;;8.05;4.47;;;;;;;20.52;52.97;101899.22;16120311;19;129938;-58
2023/10/02 04:24:24;;;;;;;7.00;4.30;;;;;;;20.52;53.00;101893.66;16122113;19;129841;-58
2023/10/02 04:35:45;;;;;;;6.97;4.28;;;;;;;20.50;52.98;101893.06;16114649;19;131505;-58
2023/10/02 04:41:25;;;;;;;7.25;4.47;;;;;;;20.50;53.26;101897.75;16111529;19;130441;-57
2023/10/02 04:46:52;;;;;;;6.50;4.07;;;;;;;20.50;53.13;101894.97;16116686;19;129784;-58
2023/10/02 04:52:14;;;;;;;6.55;4.03;;;;;;;20.48;52.79;101878.53;16117630;19;129771;-58
2023/10/02 04:57:36;;;;;;;8.20;4.03;;;;;;;20.49;53.07;101890.53;16109663;19;130203;-58
2023/10/02 05:03:25;;;;;;;6.32;4.07;;;;;;;20.48;53.03;101895.22;16112224;19;131147;-58
2023/10/02 05:14:15;;;;;;;6.68;4.05;;;;;;;20.47;52.87;101893.50;16113328;19;129705;-57
2023/10/02 05:19:56;;;;;;;5.53;3.50;;;;;;;20.47;53.29;101893.50;16115110;19;130072;-57
2023/10/02 05:25:20;;;;;;;11.23;4.28;;;;;;;20.47;53.25;101896.28;16111311;19;130998;-58
2023/10/02 05:30:43;;;;;;;8.27;4.15;;;;;;;20.47;53.21;101904.63;16112773;19;129989;-57
2023/10/02 05:36:07;;;;;;;10.10;4.13;;;;;;;20.47;53.16;101901.03;16106253;19;133797;-50
2023/10/02 05:41:41;;;;;;;5.90;3.72;;;;;;;20.48;52.75;101897.16;16111327;19;131131;-52
2023/10/02 05:47:07;;;;;;;8.68;3.95;;;;;;;20.51;52.68;101902.22;16106556;19;131001;-55
2023/10/02 05:52:29;;;;;;;14.50;4.10;;;;;;;20.50;52.75;101903.31;16104970;19;130442;-57
2023/10/02 05:57:54;;;;;;;11.25;4.43;;;;;;;20.50;52.52;101897.75;16114096;19;129957;-55
2023/10/02 06:03:16;;;;;;;11.43;4.53;;;;;;;20.52;52.57;101921.47;16109241;19;130400;-56
2023/10/02 06:08:41;;;;;;;12.45;4.80;;;;;;;20.52;52.22;101918.69;16113635;19;128769;-52
2023/10/02 06:14:12;;;;;;;15.43;5.47;;;;;;;20.52;52.01;101913.13;16113338;19;131138;-55
2023/10/02 06:19:42;;;;;;;12.10;4.85;;;;;;;20.53;52.01;101914.81;16111502;19;130162;-55
2023/10/02 06:25:05;;;;;;;12.30;4.13;;;;;;;20.54;51.75;101916.53;16112527;19;129347;-50
2023/10/02 06:30:29;;;;;;;10.73;4.10;;;;;;;20.56;51.99;101913.50;16109002;19;129834;-56
2023/10/02 06:36:00;;;;;;;14.35;4.28;;;;;;;20.57;51.99;101918.81;16112906;19;129739;-52
2023/10/02 06:41:23;;;;;;;10.13;4.45;;;;;;;20.60;51.80;101917.50;16108623;19;130356;-57
2023/10/02 06:46:55;;;;;;;8.43;4.57;;;;;;;20.64;51.49;101921.50;16109170;19;129520;-54
2023/10/02 06:52:20;;;;;;;10.15;4.60;;;;;;;20.68;51.68;101919.09;16111302;19;129389;-55
2023/10/02 06:57:49;;;;;;;14.45;4.88;;;;;;;20.72;51.83;101914.75;16108342;19;130904;-56
2023/10/02 07:03:12;;;;;;;16.33;5.18;;;;;;;20.75;51.33;101911.53;16110949;19;131810;-56
2023/10/02 07:08:36;;;;;;;10.55;5.20;;;;;;;20.81;51.54;101921.72;16122713;19;129381;-56
2023/10/02 07:14:03;;;;;;;10.45;5.35;;;;;;;20.85;51.00;101911.81;16129964;19;130809;-56
2023/10/02 07:19:38;;;;;;;10.85;5.30;;;;;;;20.87;51.15;101892.97;16122905;19;129391;-55
2023/10/02 07:25:04;;;;;;;14.52;6.07;;;;;;;20.93;51.16;101901.41;16120638;19;130145;-57
2023/10/02 07:30:27;;;;;;;14.88;5.95;;;;;;;20.96;50.90;101909.28;16122908;19;130979;-56
2023/10/02 07:35:56;;;;;;;12.93;5.80;;;;;;;21.01;50.75;101906.66;16123005;19;131952;-55
2023/10/02 07:41:23;;;;;;;13.57;6.25;;;;;;;21.03;50.44;101908.09;16118832;19;129855;-55
2023/10/02 07:46:55;;;;;;;14.40;6.47;;;;;;;21.10;50.63;101919.13;16125022;19;129252;-55
2023/10/02 07:52:35;;;;;;;12.35;6.47;;;;;;;21.17;50.58;101925.41;16123637;19;130940;-53
2023/10/02 07:58:00;;;;;;;13.00;6.55;;;;;;;21.26;50.34;101927.88;16121126;19;129233;-57
2023/10/02 08:03:32;;;;;;;13.77;7.10;;;;;;;21.37;50.29;101924.25;16120171;19;129722;-55
2023/10/02 08:14:40;;;;;;;13.52;7.00;;;;;;;24.17;44.81;101913.59;16122409;19;130234;-55
2023/10/02 08:20:19;;;;;;;17.17;7.68;;;;;;;25.56;42.46;101906.56;16124501;19;130990;-54
2023/10/02 08:25:41;;;;;;;19.08;9.10;;;;;;;24.61;43.55;101912.72;16126666;19;129913;-55
2023/10/02 08:31:03;;;;;;;21.33;8.80;;;;;;;23.85;44.79;101923.50;16122729;19;131165;-54
2023/10/02 08:36:28;;;;;;;21.65;9.45;;;;;;;23.26;45.57;101912.81;16127190;19;129498;-53
2023/10/02 08:41:51;;;;;;;19.02;8.85;;;;;;;22.80;46.19;101918.41;16125192;19;130714;-53
2023/10/02 08:47:35;;;;;;;21.10;8.73;;;;;;;22.48;46.86;101921.72;16122708;19;130545;-53
2023/10/02 08:52:55;;;;;;;19.23;9.10;;;;;;;22.22;47.75;101922.03;16119535;19;129903;-54
2023/10/02 08:58:22;;;;;;;22.50;8.45;;;;;;;22.06;48.29;101904.13;16115673;19;129733;-54
2023/10/02 09:04:03;;;;;;;21.83;9.73;;;;;;;21.94;48.67;101906.94;16112458;19;130589;-55
2023/10/02 09:09:35;;;;;;;18.65;9.23;;;;;;;21.86;48.74;101889.75;16114219;19;131073;-51
2023/10/02 09:15:23;;;;;;;20.08;9.45;;;;;;;21.80;48.99;101891.56;16115032;19;130407;-55
2023/10/02 09:20:53;;;;;;;16.70;8.95;;;;;;;21.78;48.89;101905.75;16119776;19;130011;-54
2023/10/02 09:26:16;;;;;;;18.15;8.25;;;;;;;21.75;49.43;101903.44;16107188;19;130141;-54
2023/10/02 09:31:41;;;;;;;22.70;9.57;;;;;;;21.74;49.61;101896.19;16108347;19;129580;-53
2023/10/02 09:37:13;;;;;;;16.50;8.68;;;;;;;21.70;49.44;101900.53;16111998;19;129809;-55
2023/10/02 09:43:08;;;;;;;16.95;8.73;;;;;;;21.70;49.62;101896.91;16114321;19;130743;-58
2023/10/02 09:54:17;;;;;;;15.60;8.38;;;;;;;21.59;49.76;101881.91;16111568;19;130168;-54
2023/10/02 09:59:46;;;;;;;19.27;9.00;;;;;;;21.55;49.82;101875.13;16108883;19;129668;-54
2023/10/02 10:16:23;;;;;;;15.57;8.57;;;;;;;21.49;50.33;101869.47;16111356;19;130722;-54
2023/10/02 10:21:57;;;;;;;22.73;10.80;;;;;;;21.50;50.27;101870.28;16108988;19;129864;-53
2023/10/02 10:27:41;;;;;;;24.38;12.55;;;;;;;21.55;50.25;101864.84;16110346;19;130197;-53
2023/10/02 10:38:41;;;;;;;30.58;13.35;;;;;;;21.60;50.12;101851.03;16109257;19;130211;-56
2023/10/02 10:44:12;;;;;;;25.05;13.52;;;;;;;21.65;50.23;101853.09;16123736;19;131191;-52
2023/10/02 10:49:53;;;;;;;31.17;13.75;;;;;;;21.68;50.37;101841.44;16122099;19;130804;-55
2023/10/02 10:55:32;;;;;;;24.35;12.57;;;;;;;21.69;50.48;101834.78;16126948;19;129655;-52
2023/10/02 11:00:54;;;;;;;26.80;12.90;;;;;;;21.67;50.22;101839.75;16125884;19;130254;-55
2023/10/02 11:06:17;;;;;;;26.48;12.82;;;;;;;21.65;50.61;101831.66;16124717;19;129618;-55
2023/10/02 11:11:49;;;;;;;23.02;12.63;;;;;;;21.65;50.46;101833.59;16125679;19;129883;-50
2023/10/02 11:17:11;;;;;;;24.20;11.95;;;;;;;21.65;50.26;101822.47;16123457;19;129970;-55
2023/10/02 11:22:49;;;;;;;20.95;11.00;;;;;;;21.67;50.55;101814.69;16120549;19;133683;-56
2023/10/02 11:28:27;;;;;;;19.38;10.95;;;;;;;21.67;50.49;101820.25;16124405;19;129385;-50
2023/10/02 11:33:52;;;;;;;20.38;10.60;;;;;;;21.66;50.73;101811.06;16120249;19;131298;-55
2023/10/02 11:39:17;;;;;;;22.80;11.20;;;;;;;21.66;50.71;101807.47;16123254;19;129375;-56
2023/10/02 11:44:39;;;;;;;19.07;10.37;;;;;;;21.65;50.53;101797.41;16116263;19;130875;-55
2023/10/02 11:50:02;;;;;;;19.23;10.38;;;;;;;21.66;50.65;101799.94;16119467;19;129792;-56
2023/10/02 11:55:24;;;;;;;20.90;10.95;;;;;;;21.67;50.87;101784.06;16119076;19;130742;-54
2023/10/02 12:00:46;;;;;;;18.60;10.60;;;;;;;21.67;50.76;101779.34;16126965;19;130224;-53
2023/10/02 12:06:16;;;;;;;17.20;9.27;;;;;;;21.67;50.73;101779.34;16122324;19;135392;-54
2023/10/02 12:11:38;;;;;;;22.38;10.95;;;;;;;21.67;50.87;101776.56;16120593;19;132116;-55
2023/10/02 12:17:01;;;;;;;18.52;9.82;;;;;;;21.68;50.76;101763.47;16117522;19;129639;-54
2023/10/02 12:22:23;;;;;;;22.17;10.45;;;;;;;21.67;50.74;101768.22;16119333;19;130101;-55
2023/10/02 12:27:45;;;;;;;22.30;10.30;;;;;;;21.67;50.59;101750.63;16121323;19;131109;-56
2023/10/02 12:33:09;;;;;;;18.00;10.30;;;;;;;21.67;50.83;101747.84;16120131;19;129418;-53
2023/10/02 12:38:31;;;;;;;20.02;10.07;;;;;;;21.67;50.81;101733.94;16119197;19;131279;-56
2023/10/02 12:43:56;;;;;;;19.23;9.38;;;;;;;21.66;51.12;101732.28;16118991;19;129379;-56
2023/10/02 12:49:20;;;;;;;17.83;9.20;;;;;;;21.65;50.89;101727.78;16117639;19;129548;-53
2023/10/02 12:54:43;;;;;;;16.13;8.88;;;;;;;21.66;51.12;101715.56;16118509;19;131250;-53
2023/10/02 13:00:16;;;;;;;20.50;9.00;;;;;;;21.65;50.81;101703.56;16120017;19;130446;-56
2023/10/02 13:05:41;;;;;;;17.30;8.98;;;;;;;21.66;51.10;101705.25;16116899;19;129502;-55
2023/10/02 13:11:04;;;;;;;17.67;9.02;;;;;;;21.68;50.70;101696.66;16118917;19;130994;-53
2023/10/02 13:16:26;;;;;;;18.38;8.85;;;;;;;21.67;50.91;101695.81;16112717;19;130977;-55
2023/10/02 13:21:52;;;;;;;17.50;9.00;;;;;;;21.69;51.21;101684.41;16113093;19;130356;-56
2023/10/02 13:27:17;;;;;;;16.38;8.30;;;;;;;21.68;51.15;101679.94;16115627;19;130976;-54
2023/10/02 13:32:40;;;;;;;19.95;8.48;;;;;;;21.69;50.82;101676.06;16114558;19;129935;-57
2023/10/02 13:38:04;;;;;;;14.80;8.30;;;;;;;21.68;51.09;101679.94;16114695;19;130632;-56
2023/10/02 13:43:26;;;;;;;14.55;7.78;;;;;;;21.69;50.89;101662.13;16113783;19;130421;-55
2023/10/02 13:48:52;;;;;;;15.05;8.20;;;;;;;21.70;51.02;101663.00;16111607;19;129493;-56
2023/10/02 13:54:15;;;;;;;15.50;8.07;;;;;;;21.70;51.26;101649.91;16115546;19;129539;-56
2023/10/02 13:59:36;;;;;;;12.38;7.45;;;;;;;21.71;50.91;101640.47;16108501;19;129331;-56
2023/10/02 14:05:01;;;;;;;12.40;7.55;;;;;;;21.71;50.74;101639.63;16105851;19;129803;-55
2023/10/02 14:10:23;;;;;;;14.93;7.90;;;;;;;21.72;51.16;101630.19;16112148;19;130828;-57
2023/10/02 14:15:46;;;;;;;14.13;7.78;;;;;;;21.71;51.06;101618.19;16107532;19;130048;-58
2023/10/02 14:21:13;;;;;;;13.18;7.47;;;;;;;21.72;50.98;101614.31;16108280;19;130239;-57
2023/10/02 14:26:36;;;;;;;14.00;7.95;;;;;;;21.72;51.09;101614.31;16105056;19;130388;-54
2023/10/02 14:31:58;;;;;;;12.95;7.38;;;;;;;21.71;51.12;101593.13;16109652;19;129250;-58
2023/10/02 14:37:22;;;;;;;14.23;8.05;;;;;;;21.72;51.36;101583.66;16108189;19;129846;-57
2023/10/02 14:42:44;;;;;;;13.57;7.53;;;;;;;21.71;50.92;101584.75;16110023;19;129629;-58
2023/10/02 14:48:06;;;;;;;21.83;10.98;;;;;;;21.73;51.13;101570.56;16104363;19;129991;-58
2023/10/02 14:53:28;;;;;;;23.80;12.32;;;;;;;21.76;51.06;101565.38;16113829;19;134887;-57
2023/10/02 14:58:50;;;;;;;25.63;14.00;;;;;;;21.79;50.68;101559.28;16115940;19;129447;-59
2023/10/02 15:04:14;;;;;;;30.23;14.32;;;;;;;21.82;51.50;101558.78;16104558;19;131143;-58
2023/10/02 15:09:36;;;;;;;30.77;14.55;;;;;;;21.87;51.48;101548.81;16105870;19;131581;-57
2023/10/02 15:14:57;;;;;;;31.55;16.00;;;;;;;21.88;51.02;101540.19;16107318;19;129664;-58
2023/10/02 15:20:24;;;;;;;30.60;15.63;;;;;;;21.90;51.15;101531.59;16101415;19;131053;-59
2023/10/02 15:25:50;;;;;;;31.00;16.42;;;;;;;21.91;51.10;101516.59;16114380;19;131054;-58
2023/10/02 15:31:14;;;;;;;32.70;16.48;;;;;;;21.91;50.93;101519.38;16123989;19;129906;-57
2023/10/02 15:36:37;;;;;;;37.05;17.58;;;;;;;21.93;50.80;101509.66;16123579;19;130510;-58
2023/10/02 15:42:00;;;;;;;39.50;17.63;;;;;;;21.94;51.21;101505.78;16116139;19;129436;-58
2023/10/02 15:47:22;;;;;;;41.20;17.08;;;;;;;21.94;51.02;101499.34;16120153;19;131399;-59
2023/10/02 15:52:47;;;;;;;41.75;17.70;;;;;;;21.93;51.30;101490.16;16122938;19;130425;-58
2023/10/02 15:58:11;;;;;;;33.92;16.20;;;;;;;21.92;51.65;101485.69;16122844;19;129560;-58
2023/10/02 16:03:34;;;;;;;43.47;17.90;;;;;;;21.93;51.82;101490.16;16122501;19;131066;-59
2023/10/02 16:08:57;;;;;;;36.22;15.95;;;;;;;21.90;52.32;101478.69;16121895;19;132159;-58
2023/10/02 16:14:19;;;;;;;38.60;16.45;;;;;;;21.89;52.47;101475.03;16119558;19;129369;-59
2023/10/02 16:19:41;;;;;;;30.23;15.40;;;;;;;21.88;52.45;101466.94;16122517;19;130538;-57
2023/10/02 16:25:04;;;;;;;38.35;15.43;;;;;;;21.86;52.88;101469.97;16119627;19;129552;-58
2023/10/02 16:30:26;;;;;;;34.72;15.20;;;;;;;21.85;52.97;101467.44;16115909;19;129635;-61
2023/10/02 16:35:49;;;;;;;33.08;14.38;;;;;;;21.81;53.02;101451.25;16117794;19;130701;-59
2023/10/02 16:41:11;;;;;;;34.90;14.95;;;;;;;21.79;53.08;101447.88;16117847;19;131494;-59
2023/10/02 16:46:33;;;;;;;29.75;14.10;;;;;;;21.76;53.52;101442.81;16114874;19;130487;-59
2023/10/02 16:51:55;;;;;;;33.72;14.18;;;;;;;21.75;53.20;101448.63;16121675;19;129377;-59
2023/10/02 16:57:17;;;;;;;33.58;13.63;;;;;;;21.73;53.22;101440.53;16121239;19;130356;-58
2023/10/02 17:02:43;;;;;;;25.90;12.80;;;;;;;21.70;53.25;101435.47;16117041;19;130770;-59
2023/10/02 17:08:06;;;;;;;25.45;12.95;;;;;;;21.67;53.06;101428.50;16117239;19;129476;-58
2023/10/02 17:13:29;;;;;;;25.92;12.45;;;;;;;21.66;53.14;101420.41;16117552;19;129415;-59
2023/10/02 17:18:51;;;;;;;23.60;11.48;;;;;;;21.64;53.23;101420.63;16113534;19;130254;-57
2023/10/02 17:24:13;;;;;;;30.85;12.35;;;;;;;21.64;53.12;101430.94;16112420;19;131249;-60
2023/10/02 17:29:35;;;;;;;21.33;11.60;;;;;;;21.67;53.35;101428.50;16115830;19;130745;-57
2023/10/02 17:34:57;;;;;;;23.50;11.00;;;;;;;21.70;53.14;101427.13;16116713;19;129519;-62
2023/10/02 17:40:20;;;;;;;22.13;10.65;;;;;;;21.73;53.37;101425.75;16115976;19;130324;-52
2023/10/02 17:45:42;;;;;;;26.88;10.65;;;;;;;21.76;53.22;101428.91;16111450;19;129708;-54
2023/10/02 17:51:07;;;;;;;25.17;11.82;;;;;;;21.78;53.37;101426.72;16115957;19;129810;-54
2023/10/02 17:56:30;;;;;;;25.17;10.65;;;;;;;21.79;53.23;101433.94;16111596;19;131436;-57
2023/10/02 18:01:52;;;;;;;19.05;9.65;;;;;;;21.80;53.16;101427.28;16114235;19;129954;-59
2023/10/02 18:07:15;;;;;;;22.13;9.18;;;;;;;21.82;53.27;101429.81;16112472;19;133364;-58
2023/10/02 18:12:38;;;;;;;20.00;9.75;;;;;;;21.81;52.93;101417.81;16111397;19;130711;-57
2023/10/02 18:18:00;;;;;;;21.00;8.82;;;;;;;21.80;52.94;101413.34;16112884;19;129541;-59
2023/10/02 18:23:22;;;;;;;21.77;9.50;;;;;;;21.79;52.93;101397.72;16113929;19;130936;-59
2023/10/02 18:28:44;;;;;;;18.42;8.43;;;;;;;21.79;52.95;101402.47;16113161;19;129490;-59
2023/10/02 18:34:08;;;;;;;19.83;9.52;;;;;;;21.76;53.00;101395.47;16111913;19;129634;-59
2023/10/02 18:39:30;;;;;;;15.43;8.05;;;;;;;21.76;52.94;101391.84;16112919;19;129406;-59
2023/10/02 18:44:52;;;;;;;17.65;9.18;;;;;;;21.76;53.01;101387.13;16111457;19;130253;-61
2023/10/02 18:50:14;;;;;;;21.08;9.10;;;;;;;21.76;52.93;101370.41;16111208;19;130973;-63
2023/10/02 18:55:36;;;;;;;19.40;8.95;;;;;;;21.74;52.94;101378.19;16112780;19;130097;-61
2023/10/02 19:00:58;;;;;;;26.77;9.32;;;;;;;21.74;53.25;101382.91;16114192;19;130758;-60
2023/10/02 19:06:22;;;;;;;28.08;9.40;;;;;;;21.73;52.93;101375.63;16124444;19;129593;-60
2023/10/02 19:11:47;;;;;;;20.95;8.85;;;;;;;21.73;53.02;101359.78;16125911;19;129474;-64
2023/10/02 19:17:11;;;;;;;;;;;;;;;21.73;53.21;101354.22;16128289;19;129171;-59
2023/10/02 19:22:35;;;;;;;35.30;9.80;;;;;;;21.76;53.22;101339.78;16125558;19;133413;-57
2023/10/02 19:27:58;;;;;;;24.25;8.50;;;;;;;21.76;53.26;101337.00;16125218;19;130393;-59
2023/10/02 19:33:20;;;;;;;25.38;8.60;;;;;;;21.76;53.12;101336.13;16123787;19;130873;-59
2023/10/02 19:38:42;;;;;;;21.65;8.52;;;;;;;21.75;53.36;101342.81;16122056;19;129496;-58
2023/10/02 19:44:06;;;;;;;23.80;8.82;;;;;;;21.75;53.35;101334.47;16121385;19;130574;-59
2023/10/02 19:49:28;;;;;;;28.48;8.70;;;;;;;21.74;53.08;101322.50;16119460;19;130972;-59
2023/10/02 19:54:51;;;;;;;24.92;8.05;;;;;;;21.73;53.39;101308.81;16127845;19;129722;-55
2023/10/02 20:00:14;;;;;;;19.98;8.20;;;;;;;21.73;53.30;101308.81;16122814;19;129688;-59
2023/10/02 20:05:39;;;;;;;19.30;8.18;;;;;;;21.73;53.37;101298.53;16122012;19;130667;-59
2023/10/02 20:11:02;;;;;;;20.58;7.53;;;;;;;21.74;53.07;101291.00;16120058;19;130873;-59
2023/10/02 20:16:24;;;;;;;22.67;8.10;;;;;;;21.72;53.29;101280.13;16114862;19;130707;-61
2023/10/02 20:21:46;;;;;;;21.33;7.70;;;;;;;21.73;53.50;101272.59;16120769;19;130974;-60
2023/10/02 20:27:08;;;;;;;15.07;7.80;;;;;;;21.73;53.39;101269.81;16122591;19;132523;-59
2023/10/02 20:32:31;;;;;;;26.00;8.15;;;;;;;21.72;53.50;101260.63;16117940;19;129663;-59
2023/10/02 20:37:53;;;;;;;26.55;8.25;;;;;;;21.75;53.06;101254.56;16116747;19;131141;-58
2023/10/02 20:43:15;;;;;;;21.70;7.38;;;;;;;21.77;53.13;101238.44;16118548;19;130740;-60
2023/10/02 20:48:38;;;;;;;16.25;7.18;;;;;;;21.75;53.11;101240.63;16116853;19;130351;-64
2023/10/02 20:54:03;;;;;;;19.92;7.20;;;;;;;21.75;53.30;101234.19;16120453;19;129687;-59
2023/10/02 20:59:25;;;;;;;18.60;6.85;;;;;;;21.72;52.93;101221.66;16119599;19;130710;-58
2023/10/02 21:04:47;;;;;;;16.85;7.35;;;;;;;21.71;52.86;101213.56;16115608;19;130913;-58
2023/10/02 21:10:09;;;;;;;16.08;7.90;;;;;;;21.70;52.77;101209.94;16116252;19;129972;-59
2023/10/02 21:15:31;;;;;;;17.08;7.18;;;;;;;21.70;52.69;101203.53;16116498;19;131861;-57
2023/10/02 21:20:53;;;;;;;14.10;7.32;;;;;;;21.68;52.83;101201.00;16114378;19;133911;-58
2023/10/02 21:26:16;;;;;;;17.25;7.20;;;;;;;21.67;52.93;101199.31;16115399;19;129517;-58
2023/10/02 21:31:38;;;;;;;15.40;6.93;;;;;;;21.65;52.70;101193.19;16113509;19;130549;-58
2023/10/02 21:37:00;;;;;;;14.70;7.03;;;;;;;21.64;52.90;101183.13;16113201;19;130136;-58
2023/10/02 21:42:21;;;;;;;12.50;6.75;;;;;;;21.62;52.65;101179.78;16112643;19;130062;-59
2023/10/02 21:47:44;;;;;;;16.90;6.68;;;;;;;21.60;52.62;101165.25;16112330;19;131765;-58
2023/10/02 21:53:06;;;;;;;14.73;6.57;;;;;;;21.58;52.49;101157.19;16116532;19;130449;-59
2023/10/02 21:58:28;;;;;;;14.25;6.28;;;;;;;21.58;52.52;101142.41;16109535;19;129746;-58
2023/10/02 22:03:53;;;;;;;11.77;6.53;;;;;;;21.57;52.54;101140.72;16117583;19;130247;-58
2023/10/02 22:09:17;;;;;;;;;;;;;;;21.51;52.71;101132.34;16111476;19;131122;-59
2023/10/02 22:14:42;;;;;;;12.85;6.10;;;;;;;21.54;52.27;101138.50;16111721;19;131892;-59
2023/10/02 22:20:05;;;;;;;12.38;6.90;;;;;;;21.51;52.43;101132.34;16111988;19;129822;-59
2023/10/02 22:25:27;;;;;;;13.88;6.68;;;;;;;21.51;52.48;101117.56;16113398;19;130252;-59
2023/10/02 22:30:51;;;;;;;13.85;6.40;;;;;;;21.50;52.52;101111.16;16113987;19;130539;-57
2023/10/02 22:36:14;;;;;;;11.25;6.25;;;;;;;21.49;52.47;101114.19;16115573;19;134661;-58
2023/10/02 22:41:36;;;;;;;12.23;6.22;;;;;;;21.47;52.72;101103.28;16121372;19;129029;-58
2023/10/02 22:46:58;;;;;;;9.60;5.85;;;;;;;21.48;52.47;101095.78;16125899;19;131497;-59
2023/10/02 22:52:20;;;;;;;15.38;6.38;;;;;;;21.46;52.33;101076.56;16123434;19;129503;-57
2023/10/02 22:57:44;;;;;;;13.45;6.05;;;;;;;21.45;52.36;101074.88;16123378;19;130592;-58
2023/10/02 23:03:08;;;;;;;12.48;6.13;;;;;;;21.43;52.18;101063.16;16124707;19;130382;-58
2023/10/02 23:08:33;;;;;;;9.75;5.60;;;;;;;21.43;52.51;101056.78;16124676;19;130655;-59
2023/10/02 23:13:55;;;;;;;16.42;6.78;;;;;;;21.42;52.43;101052.31;16124195;19;130288;-58
2023/10/02 23:19:24;;;;;;;11.02;6.35;;;;;;;21.41;52.46;101040.34;16124291;19;130902;-58
2023/10/02 23:24:46;;;;;;;12.18;6.00;;;;;;;21.39;52.48;101020.28;16123549;19;130129;-58
2023/10/02 23:30:09;;;;;;;8.80;5.32;;;;;;;21.37;52.69;101012.19;16123675;19;130387;-57
2023/10/02 23:35:32;;;;;;;12.68;6.00;;;;;;;21.36;52.44;101006.88;16121463;19;130407;-58
2023/10/02 23:40:54;;;;;;;11.60;5.70;;;;;;;21.37;52.57;101003.00;16127337;19;130705;-59
2023/10/02 23:46:16;;;;;;;11.95;5.78;;;;;;;21.36;52.16;100990.19;16116381;19;129784;-56
2023/10/02 23:51:39;;;;;;;13.27;6.20;;;;;;;21.36;52.50;100976.28;16123684;19;130791;-58
2023/10/02 23:57:01;;;;;;;11.55;5.95;;;;;;;21.35;52.07;100969.03;16122882;19;130194;-57
